createdAt,value
2022-08-26T00:02:16.232Z,95631.00
2022-08-26T00:04:46.590Z,95626.59
2022-08-26T00:07:13.310Z,95629.38
2022-08-26T00:09:40.521Z,95630.91
2022-08-26T00:12:08.046Z,95633.66
2022-08-26T00:14:35.726Z,95628.88
2022-08-26T00:17:02.734Z,95632.81
2022-08-26T00:19:29.494Z,95631.63
2022-08-26T00:21:56.276Z,95631.22
2022-08-26T00:24:23.861Z,95625.66
2022-08-26T00:26:51.597Z,95621.53
2022-08-26T00:29:18.639Z,95630.72
2022-08-26T00:31:45.776Z,95625.88
2022-08-26T00:34:13.153Z,95629.44
2022-08-26T00:36:40.972Z,95631.06
2022-08-26T00:39:08.585Z,95627.44
2022-08-26T00:41:38.041Z,95632.56
2022-08-26T00:44:05.627Z,95630.16
2022-08-26T00:46:38.346Z,95632.91
2022-08-26T00:49:13.611Z,95638.06
2022-08-26T00:51:46.014Z,95631.66
2022-08-26T00:54:13.370Z,95633.28
2022-08-26T00:57:00.065Z,95628.91
2022-08-26T00:59:29.209Z,95626.13
2022-08-26T01:02:00.373Z,95628.09
2022-08-26T01:04:31.413Z,95634.50
2022-08-26T01:06:58.775Z,95632.06
2022-08-26T01:09:25.591Z,95633.28
2022-08-26T01:11:56.906Z,95634.06
2022-08-26T01:14:26.649Z,95630.84
2022-08-26T01:16:53.295Z,95631.66
2022-08-26T01:19:32.963Z,95623.72
2022-08-26T01:22:05.553Z,95628.47
2022-08-26T01:24:32.306Z,95632.06
2022-08-26T01:27:03.424Z,95635.25
2022-08-26T01:29:33.795Z,95635.22
2022-08-26T01:32:00.933Z,95640.78
2022-08-26T01:34:36.939Z,95644.34
2022-08-26T01:37:18.313Z,95639.97
2022-08-26T01:39:49.069Z,95636.44
2022-08-26T01:42:19.004Z,95628.91
2022-08-26T01:45:01.014Z,95632.91
2022-08-26T01:47:30.915Z,95638.50
2022-08-26T01:50:01.559Z,95643.25
2022-08-26T01:52:33.346Z,95643.69
2022-08-26T01:55:00.990Z,95636.56
2022-08-26T01:57:28.602Z,95640.13
2022-08-26T02:00:01.133Z,95635.72
2022-08-26T02:02:28.292Z,95634.97
2022-08-26T02:05:02.275Z,95640.50
2022-08-26T02:07:30.370Z,95646.03
2022-08-26T02:09:59.941Z,95653.25
2022-08-26T02:12:27.282Z,95648.47
2022-08-26T02:14:57.780Z,95647.63
2022-08-26T02:17:34.068Z,95646.84
2022-08-26T02:20:02.690Z,95647.59
2022-08-26T02:22:31.186Z,95646.00
2022-08-26T02:25:11.791Z,95648.41
2022-08-26T02:27:38.700Z,95648.34
2022-08-26T02:30:15.546Z,95646.78
2022-08-26T02:32:44.821Z,95643.13
2022-08-26T02:35:13.601Z,95642.78
2022-08-26T02:37:45.248Z,95633.28
2022-08-26T02:40:14.603Z,95631.69
2022-08-26T02:42:41.674Z,95639.28
2022-08-26T02:45:10.723Z,95643.59
2022-08-26T02:47:37.609Z,95645.19
2022-08-26T02:50:06.054Z,95632.44
2022-08-26T02:52:32.946Z,95634.81
2022-08-26T02:55:00.539Z,95639.59
2022-08-26T02:57:28.987Z,95634.78
2022-08-26T02:59:55.580Z,95626.44
2022-08-26T03:02:23.137Z,95630.09
2022-08-26T03:04:57.744Z,95634.44
2022-08-26T03:07:29.029Z,95622.16
2022-08-26T03:09:57.261Z,95626.88
2022-08-26T03:12:24.184Z,95631.69
2022-08-26T03:14:52.901Z,95628.78
2022-08-26T03:17:19.791Z,95624.03
2022-08-26T03:19:46.511Z,95622.84
2022-08-26T03:22:14.699Z,95621.16
2022-08-26T03:24:44.398Z,95618.34
2022-08-26T03:27:13.294Z,95629.06
2022-08-26T03:29:59.863Z,95629.06
2022-08-26T03:32:27.133Z,95621.88
2022-08-26T03:34:54.362Z,95621.88
2022-08-26T03:37:21.621Z,95623.06
2022-08-26T03:39:48.951Z,95625.81
2022-08-26T03:42:16.001Z,95624.56
2022-08-26T03:44:42.774Z,95625.00
2022-08-26T03:47:14.319Z,95617.81
2022-08-26T03:49:41.862Z,95626.16
2022-08-26T03:52:08.900Z,95620.88
2022-08-26T03:54:35.696Z,95618.19
2022-08-26T03:57:02.570Z,95620.19
2022-08-26T03:59:29.909Z,95620.56
2022-08-26T04:01:56.587Z,95624.50
2022-08-26T04:04:24.433Z,95622.81
2022-08-26T04:06:58.355Z,95616.94
2022-08-26T04:09:26.146Z,95622.84
2022-08-26T04:11:54.315Z,95610.47
2022-08-26T04:14:23.773Z,95607.69
2022-08-26T04:16:51.741Z,95618.00
2022-08-26T04:19:20.332Z,95617.94
2022-08-26T04:21:48.674Z,95615.88
2022-08-26T04:24:16.697Z,95612.25
2022-08-26T04:26:44.422Z,95616.13
2022-08-26T04:29:18.058Z,95616.50
2022-08-26T04:31:45.351Z,95609.69
2022-08-26T04:34:14.078Z,95615.63
2022-08-26T04:36:41.975Z,95616.00
2022-08-26T04:39:12.098Z,95625.91
2022-08-26T04:41:39.453Z,95622.00
2022-08-26T04:44:07.145Z,95622.41
2022-08-26T04:46:34.441Z,95620.81
2022-08-26T04:49:02.199Z,95631.97
2022-08-26T04:51:29.014Z,95627.72
2022-08-26T04:53:57.446Z,95630.91
2022-08-26T04:56:26.518Z,95635.97
2022-08-26T04:58:53.718Z,95643.63
2022-08-26T05:01:21.434Z,95636.06
2022-08-26T05:03:51.686Z,95646.00
2022-08-26T05:06:19.651Z,95647.59
2022-08-26T05:08:46.772Z,95651.25
2022-08-26T05:11:13.651Z,95653.34
2022-08-26T05:13:40.597Z,95641.31
2022-08-26T05:16:11.992Z,95654.91
2022-08-26T05:18:39.824Z,95648.63
2022-08-26T05:21:07.537Z,95661.34
2022-08-26T05:23:36.014Z,95657.31
2022-08-26T05:26:07.999Z,95657.81
2022-08-26T05:28:35.576Z,95656.63
2022-08-26T05:31:15.431Z,95657.91
2022-08-26T05:33:45.395Z,95655.97
2022-08-26T05:36:15.243Z,95653.16
2022-08-26T05:38:42.751Z,95662.78
2022-08-26T05:41:17.871Z,95662.78
2022-08-26T05:43:45.463Z,95665.63
2022-08-26T05:46:12.860Z,95659.63
2022-08-26T05:48:40.191Z,95666.75
2022-08-26T05:51:12.677Z,95669.19
2022-08-26T05:53:43.735Z,95674.41
2022-08-26T05:56:12.319Z,95677.63
2022-08-26T05:58:40.943Z,95671.19
2022-08-26T06:01:10.400Z,95675.22
2022-08-26T06:03:40.210Z,95673.66
2022-08-26T06:06:18.901Z,95667.38
2022-08-26T06:08:48.462Z,95669.00
2022-08-26T06:11:18.448Z,95673.06
2022-08-26T06:13:46.457Z,95669.97
2022-08-26T06:16:16.603Z,95675.13
2022-08-26T06:18:46.290Z,95678.34
2022-08-26T06:21:20.160Z,95675.81
2022-08-26T06:24:07.866Z,95684.97
2022-08-26T06:26:36.560Z,95676.19
2022-08-26T06:29:04.910Z,95671.84
2022-08-26T06:31:34.118Z,95677.88
2022-08-26T06:34:01.504Z,95673.06
2022-08-26T06:36:30.726Z,95691.41
2022-08-26T06:39:00.855Z,95685.06
2022-08-26T06:41:28.098Z,95690.28
2022-08-26T06:43:54.907Z,95691.97
2022-08-26T06:46:22.013Z,95687.25
2022-08-26T06:48:48.993Z,95684.06
2022-08-26T06:51:18.999Z,95681.31
2022-08-26T06:53:51.240Z,95680.09
2022-08-26T06:56:24.551Z,95680.44
2022-08-26T06:58:52.085Z,95685.50
2022-08-26T07:01:31.011Z,95687.53
2022-08-26T07:04:00.259Z,95690.25
2022-08-26T07:06:28.278Z,95686.38
2022-08-26T07:09:04.532Z,95691.50
2022-08-26T07:11:33.277Z,95698.25
2022-08-26T07:14:00.254Z,95694.28
2022-08-26T07:16:27.732Z,95706.56
2022-08-26T07:18:56.908Z,95706.91
2022-08-26T07:21:24.631Z,95700.63
2022-08-26T07:23:55.437Z,95704.97
2022-08-26T07:26:28.543Z,95701.25
2022-08-26T07:28:57.856Z,95704.81
2022-08-26T07:31:32.569Z,95706.09
2022-08-26T07:34:03.551Z,95702.84
2022-08-26T07:36:30.428Z,95709.28
2022-08-26T07:38:57.435Z,95713.16
2022-08-26T07:41:25.601Z,95715.56
2022-08-26T07:43:53.755Z,95717.16
2022-08-26T07:46:20.786Z,95712.00
2022-08-26T07:48:54.337Z,95722.81
2022-08-26T07:51:22.138Z,95724.41
2022-08-26T07:53:52.296Z,95729.22
2022-08-26T07:56:20.851Z,95731.72
2022-08-26T07:58:51.361Z,95729.69
2022-08-26T08:01:23.866Z,95726.84
2022-08-26T08:03:52.366Z,95724.06
2022-08-26T08:06:27.208Z,95724.41
2022-08-26T08:08:56.355Z,95728.34
2022-08-26T08:11:24.300Z,95727.63
2022-08-26T08:13:56.036Z,95734.06
2022-08-26T08:16:26.842Z,95725.75
2022-08-26T08:18:56.115Z,95732.25
2022-08-26T08:21:26.479Z,95728.72
2022-08-26T08:23:55.588Z,95734.81
2022-08-26T08:26:23.862Z,95733.50
2022-08-26T08:28:54.039Z,95730.63
2022-08-26T08:31:55.872Z,95742.50
2022-08-26T08:34:18.151Z,95754.88
2022-08-26T08:36:46.379Z,95744.56
2022-08-26T08:39:13.398Z,95747.03
2022-08-26T08:41:58.961Z,95752.22
2022-08-26T08:47:12.199Z,95742.66
2022-08-26T08:49:38.977Z,95730.13
2022-08-26T08:52:37.215Z,95744.47
2022-08-26T08:55:11.042Z,95747.66
2022-08-26T08:57:45.183Z,95749.22
2022-08-26T09:00:18.143Z,95755.19
2022-08-26T09:03:03.653Z,95756.28
2022-08-26T09:05:40.134Z,95755.50
2022-08-26T09:08:21.345Z,95762.69
2022-08-26T09:10:54.355Z,95767.53
2022-08-26T09:13:24.917Z,95767.53
2022-08-26T09:16:19.057Z,95769.38
2022-08-26T09:19:10.847Z,95773.50
2022-08-26T09:21:37.808Z,95773.66
2022-08-26T09:24:06.267Z,95778.81
2022-08-26T09:26:39.039Z,95772.03
2022-08-26T09:29:11.223Z,95768.09
2022-08-26T09:31:42.118Z,95770.69
2022-08-26T09:34:21.252Z,95777.09
2022-08-26T09:36:49.580Z,95778.63
2022-08-26T09:39:28.142Z,95773.78
2022-08-26T09:42:09.582Z,95785.00
2022-08-26T09:44:52.234Z,95778.28
2022-08-26T09:47:30.298Z,95778.34
2022-08-26T09:50:09.453Z,95784.34
2022-08-26T09:52:37.538Z,95776.25
2022-08-26T09:55:12.413Z,95777.72
2022-08-26T09:57:52.581Z,95780.09
2022-08-26T10:00:54.168Z,95774.13
2022-08-26T10:03:27.946Z,95775.50
2022-08-26T10:06:13.324Z,95768.41
2022-08-26T10:08:47.572Z,95770.00
2022-08-26T10:11:26.357Z,95779.94
2022-08-26T10:14:28.873Z,95762.53
2022-08-26T10:17:21.758Z,95764.16
2022-08-26T10:19:57.729Z,95768.88
2022-08-26T10:22:47.603Z,95770.59
2022-08-26T10:25:20.406Z,95763.00
2022-08-26T10:27:53.621Z,95770.28
2022-08-26T10:30:29.333Z,95765.56
2022-08-26T10:33:04.510Z,95761.91
2022-08-26T10:35:33.732Z,95769.78
2022-08-26T10:38:11.366Z,95765.66
2022-08-26T10:40:56.576Z,95763.09
2022-08-26T10:43:36.886Z,95767.09
2022-08-26T10:46:17.038Z,95766.34
2022-08-26T10:48:57.499Z,95760.03
2022-08-26T10:51:36.442Z,95757.75
2022-08-26T10:54:11.867Z,95757.81
2022-08-26T10:57:03.266Z,95754.63
2022-08-26T11:00:23.086Z,95758.00
2022-08-26T11:03:00.987Z,95758.78
2022-08-26T11:05:27.686Z,95761.53
2022-08-26T11:08:28.354Z,95759.91
2022-08-26T11:11:00.269Z,95760.22
2022-08-26T11:14:05.163Z,95757.84
2022-08-26T11:16:45.005Z,95768.25
2022-08-26T11:19:50.540Z,95768.13
2022-08-26T11:22:33.171Z,95760.34
2022-08-26T11:25:03.102Z,95759.69
2022-08-26T11:27:35.828Z,95754.03
2022-08-26T11:30:05.494Z,95763.25
2022-08-26T11:32:35.018Z,95757.66
2022-08-26T11:35:06.632Z,95747.66
2022-08-26T11:37:41.323Z,95748.91
2022-08-26T11:40:20.616Z,95754.50
2022-08-26T11:42:55.750Z,95742.53
2022-08-26T11:45:26.921Z,95755.66
2022-08-26T11:47:54.813Z,95749.00
2022-08-26T11:50:27.662Z,95751.53
2022-08-26T11:53:06.388Z,95746.44
2022-08-26T11:55:36.038Z,95736.47
2022-08-26T11:58:05.763Z,95750.81
2022-08-26T12:00:48.748Z,95751.91
2022-08-26T12:03:21.478Z,95745.41
2022-08-26T12:05:52.391Z,95753.75
2022-08-26T12:08:24.485Z,95752.25
2022-08-26T12:11:06.776Z,95743.19
2022-08-26T12:13:34.379Z,95751.53
2022-08-26T12:16:01.319Z,95745.66
2022-08-26T12:18:38.344Z,95750.72
2022-08-26T12:21:20.299Z,95750.69
2022-08-26T12:23:51.947Z,95745.06
2022-08-26T12:26:29.228Z,95741.88
2022-08-26T12:29:00.553Z,95751.53
2022-08-26T12:31:32.169Z,95737.28
2022-08-26T12:34:00.818Z,95726.09
2022-08-26T12:36:36.279Z,95731.69
2022-08-26T12:39:12.159Z,95736.50
2022-08-26T12:41:47.047Z,95726.47
2022-08-26T12:44:37.089Z,95734.13
2022-08-26T12:47:35.198Z,95740.38
2022-08-26T12:50:25.111Z,95736.47
2022-08-26T12:52:57.511Z,95739.28
2022-08-26T12:55:33.022Z,95742.88
2022-08-26T12:58:33.415Z,95731.28
2022-08-26T13:01:08.771Z,95732.13
2022-08-26T13:03:37.420Z,95737.28
2022-08-26T13:06:29.637Z,95730.88
2022-08-26T13:09:24.379Z,95731.72
2022-08-26T13:11:53.120Z,95732.13
2022-08-26T13:14:23.998Z,95727.28
2022-08-26T13:16:52.326Z,95723.22
2022-08-26T13:19:22.748Z,95726.69
2022-08-26T13:21:54.790Z,95723.22
2022-08-26T13:24:43.076Z,95720.50
2022-08-26T13:27:13.266Z,95726.81
2022-08-26T13:29:40.151Z,95728.38
2022-08-26T13:32:08.861Z,95725.06
2022-08-26T13:34:37.682Z,95724.25
2022-08-26T13:37:05.227Z,95733.50
2022-08-26T13:39:33.052Z,95736.28
2022-08-26T13:42:00.234Z,95720.78
2022-08-26T13:44:27.410Z,95727.13
2022-08-26T13:46:54.636Z,95733.91
2022-08-26T13:49:21.371Z,95723.47
2022-08-26T13:51:48.306Z,95724.69
2022-08-26T13:54:14.956Z,95718.59
2022-08-26T13:56:41.567Z,95722.91
2022-08-26T13:59:08.338Z,95723.31
2022-08-26T14:01:35.762Z,95714.03
2022-08-26T14:04:03.200Z,95719.63
2022-08-26T14:06:30.289Z,95724.09
2022-08-26T14:08:57.107Z,95723.81
2022-08-26T14:11:24.893Z,95727.50
2022-08-26T14:13:52.381Z,95720.78
2022-08-26T14:16:27.242Z,95721.97
2022-08-26T14:18:54.432Z,95708.47
2022-08-26T14:21:21.852Z,95708.47
2022-08-26T14:23:48.443Z,95701.66
2022-08-26T14:26:28.413Z,95704.78
2022-08-26T14:29:00.184Z,95700.81
2022-08-26T14:31:29.489Z,95700.81
2022-08-26T14:34:03.720Z,95703.47
2022-08-26T14:36:33.627Z,95709.34
2022-08-26T14:39:06.715Z,95698.28
2022-08-26T14:41:36.262Z,95703.91
2022-08-26T14:44:10.671Z,95701.25
2022-08-26T14:46:44.047Z,95701.66
2022-08-26T14:49:10.964Z,95696.88
2022-08-26T14:51:38.183Z,95708.75
2022-08-26T14:54:14.192Z,95705.59
2022-08-26T14:56:51.907Z,95703.66
2022-08-26T14:59:21.842Z,95699.69
2022-08-26T15:01:49.256Z,95697.34
2022-08-26T15:04:16.457Z,95689.34
2022-08-26T15:06:43.466Z,95694.94
2022-08-26T15:09:10.500Z,95695.75
2022-08-26T15:11:37.263Z,95686.13
2022-08-26T15:14:04.498Z,95682.19
2022-08-26T15:16:31.868Z,95690.97
2022-08-26T15:19:00.611Z,95680.53
2022-08-26T15:21:27.243Z,95680.97
2022-08-26T15:23:54.554Z,95681.78
2022-08-26T15:26:21.702Z,95689.34
2022-08-26T15:28:48.521Z,95698.13
2022-08-26T15:31:15.349Z,95696.94
2022-08-26T15:33:42.681Z,95688.56
2022-08-26T15:36:10.118Z,95696.94
2022-08-26T15:38:40.083Z,95698.94
2022-08-26T15:41:08.644Z,95691.75
2022-08-26T15:43:37.042Z,95692.91
2022-08-26T15:46:04.452Z,95692.88
2022-08-26T15:48:31.239Z,95685.31
2022-08-26T15:51:00.755Z,95683.28
2022-08-26T15:53:29.616Z,95681.22
2022-08-26T15:55:57.910Z,95681.16
2022-08-26T15:58:26.947Z,95691.00
2022-08-26T16:00:55.338Z,95684.78
2022-08-26T16:03:22.989Z,95689.53
2022-08-26T16:05:49.844Z,95685.63
2022-08-26T16:08:17.673Z,95695.97
2022-08-26T16:10:49.948Z,95697.13
2022-08-26T16:13:19.098Z,95702.66
2022-08-26T16:15:47.510Z,95702.50
2022-08-26T16:18:15.581Z,95701.25
2022-08-26T16:20:55.300Z,95703.66
2022-08-26T16:23:38.391Z,95713.22
2022-08-26T16:26:12.694Z,95710.09
2022-08-26T16:28:40.002Z,95702.84
2022-08-26T16:31:07.454Z,95701.50
2022-08-26T16:33:34.102Z,95701.09
2022-08-26T16:36:00.831Z,95705.81
2022-08-26T16:38:27.453Z,95698.72
2022-08-26T16:40:54.053Z,95704.81
2022-08-26T16:43:20.646Z,95704.47
2022-08-26T16:45:47.339Z,95702.13
2022-08-26T16:48:14.073Z,95707.72
2022-08-26T16:50:41.923Z,95704.00
2022-08-26T16:53:15.939Z,95705.19
2022-08-26T16:55:47.040Z,95716.66
2022-08-26T16:58:14.711Z,95714.69
2022-08-26T17:00:42.234Z,95713.81
2022-08-26T17:03:10.016Z,95715.63
2022-08-26T17:05:36.824Z,95718.44
2022-08-26T17:08:05.198Z,95713.66
2022-08-26T17:10:32.787Z,95718.38
2022-08-26T17:13:00.365Z,95713.53
2022-08-26T17:15:27.176Z,95720.72
2022-08-26T17:17:55.141Z,95718.72
2022-08-26T17:20:24.164Z,95725.81
2022-08-26T17:22:53.962Z,95724.97
2022-08-26T17:25:29.850Z,95728.66
2022-08-26T17:30:28.459Z,95726.22
2022-08-26T17:32:57.913Z,95725.38
2022-08-26T17:35:24.655Z,95722.88
2022-08-26T17:37:52.024Z,95715.75
2022-08-26T17:40:23.363Z,95707.78
2022-08-26T17:42:50.354Z,95710.63
2022-08-26T17:45:18.065Z,95712.19
2022-08-26T17:47:45.168Z,95718.00
2022-08-26T17:50:15.605Z,95717.63
2022-08-26T17:52:43.947Z,95706.00
2022-08-26T17:55:12.892Z,95715.53
2022-08-26T17:57:40.835Z,95720.19
2022-08-26T18:00:14.018Z,95721.78
2022-08-26T18:02:40.753Z,95716.56
2022-08-26T18:05:08.701Z,95715.78
2022-08-26T18:07:43.589Z,95712.94
2022-08-26T18:10:13.880Z,95717.66
2022-08-26T18:12:41.687Z,95722.50
2022-08-26T18:15:11.919Z,95727.69
2022-08-26T18:17:39.439Z,95726.34
2022-08-26T18:20:12.501Z,95734.19
2022-08-26T18:22:40.126Z,95733.38
2022-08-26T18:25:07.829Z,95740.50
2022-08-26T18:27:36.160Z,95741.75
2022-08-26T18:30:06.112Z,95747.75
2022-08-26T18:32:32.743Z,95743.31
2022-08-26T18:34:59.775Z,95740.41
2022-08-26T18:37:29.422Z,95744.00
2022-08-26T18:39:59.490Z,95748.75
2022-08-26T18:42:26.845Z,95749.25
2022-08-26T18:44:53.741Z,95752.13
2022-08-26T18:47:20.773Z,95756.84
2022-08-26T18:49:48.646Z,95753.97
2022-08-26T18:52:15.723Z,95757.53
2022-08-26T18:54:42.847Z,95763.66
2022-08-26T18:57:09.809Z,95769.81
2022-08-26T18:59:36.474Z,95760.81
2022-08-26T19:02:03.348Z,95764.38
2022-08-26T19:04:30.176Z,95764.88
2022-08-26T19:06:56.867Z,95767.47
2022-08-26T19:09:26.174Z,95770.31
2022-08-26T19:11:53.037Z,95765.00
2022-08-26T19:14:20.056Z,95763.03
2022-08-26T19:16:48.879Z,95768.47
2022-08-26T19:19:16.032Z,95760.25
2022-08-26T19:21:43.306Z,95764.50
2022-08-26T19:24:15.574Z,95770.94
2022-08-26T19:26:51.401Z,95768.47
2022-08-26T19:29:28.260Z,95779.69
2022-08-26T19:31:55.154Z,95778.53
2022-08-26T19:34:21.871Z,95779.19
2022-08-26T19:36:49.395Z,95778.78
2022-08-26T19:39:16.101Z,95776.38
2022-08-26T19:41:42.894Z,95773.88
2022-08-26T19:44:13.117Z,95785.72
2022-08-26T19:46:40.437Z,95778.13
2022-08-26T19:49:07.223Z,95783.38
2022-08-26T19:51:35.241Z,95780.97
2022-08-26T19:54:01.948Z,95795.50
2022-08-26T19:56:28.586Z,95787.06
2022-08-26T19:58:56.233Z,95784.72
2022-08-26T20:01:23.759Z,95789.38
2022-08-26T20:03:50.586Z,95780.97
2022-08-26T20:06:18.366Z,95774.56
2022-08-26T20:08:45.339Z,95776.97
2022-08-26T20:11:16.233Z,95777.03
2022-08-26T20:13:44.336Z,95773.75
2022-08-26T20:16:12.172Z,95765.56
2022-08-26T20:19:01.871Z,95772.47
2022-08-26T20:21:33.131Z,95778.78
2022-08-26T20:24:09.635Z,95776.44
2022-08-26T20:26:38.355Z,95779.28
2022-08-26T20:29:06.850Z,95768.97
2022-08-26T20:31:35.332Z,95779.69
2022-08-26T20:34:02.598Z,95777.09
2022-08-26T20:36:29.813Z,95774.38
2022-08-26T20:38:57.845Z,95776.38
2022-08-26T20:41:25.799Z,95781.25
2022-08-26T20:43:53.258Z,95784.81
2022-08-26T20:46:24.081Z,95787.59
2022-08-26T20:48:52.714Z,95790.88
2022-08-26T20:51:19.399Z,95791.53
2022-08-26T20:53:46.654Z,95796.47
2022-08-26T20:56:15.226Z,95782.69
2022-08-26T20:58:43.179Z,95793.38
2022-08-26T21:01:20.534Z,95787.72
2022-08-26T21:03:48.068Z,95783.88
2022-08-26T21:06:14.706Z,95788.16
2022-08-26T21:08:43.289Z,95788.41
2022-08-26T21:11:11.593Z,95787.00
2022-08-26T21:14:01.266Z,95790.94
2022-08-26T21:16:25.630Z,95793.16
2022-08-26T21:18:52.661Z,95793.66
2022-08-26T21:21:19.992Z,95807.53
2022-08-26T21:23:52.194Z,95796.94
2022-08-26T21:26:19.086Z,95796.47
2022-08-26T21:28:46.351Z,95797.22
2022-08-26T21:31:16.636Z,95799.63
2022-08-26T21:33:43.740Z,95795.91
2022-08-26T21:36:11.714Z,95798.19
2022-08-26T21:38:38.930Z,95785.09
2022-08-26T21:41:15.212Z,95791.09
2022-08-26T21:43:43.089Z,95791.16
2022-08-26T21:46:14.442Z,95791.97
2022-08-26T21:48:50.884Z,95789.31
2022-08-26T21:51:20.667Z,95794.56
2022-08-26T21:53:47.752Z,95781.72
2022-08-26T21:56:16.824Z,95784.06
2022-08-26T21:58:44.280Z,95778.94
2022-08-26T22:01:13.713Z,95784.38
2022-08-26T22:03:43.571Z,95776.03
2022-08-26T22:06:18.288Z,95786.28
2022-08-26T22:08:44.906Z,95773.63
2022-08-26T22:11:11.611Z,95775.53
2022-08-26T22:13:40.041Z,95769.41
2022-08-26T22:16:07.974Z,95768.53
2022-08-26T22:18:35.916Z,95769.22
2022-08-26T22:21:07.824Z,95766.88
2022-08-26T22:23:35.830Z,95773.28
2022-08-26T22:26:03.836Z,95768.84
2022-08-26T22:28:30.434Z,95769.72
2022-08-26T22:30:57.051Z,95777.84
2022-08-26T22:33:24.537Z,95781.41
2022-08-26T22:35:52.758Z,95774.81
2022-08-26T22:38:20.585Z,95776.19
2022-08-26T22:40:50.464Z,95781.81
2022-08-26T22:43:19.079Z,95778.97
2022-08-26T22:45:47.940Z,95771.75
2022-08-26T22:48:18.658Z,95774.53
2022-08-26T22:50:47.445Z,95766.63
2022-08-26T22:53:15.597Z,95769.41
2022-08-26T22:55:43.445Z,95777.66
2022-08-26T22:58:12.016Z,95780.44
2022-08-26T23:00:40.009Z,95784.50
2022-08-26T23:03:07.196Z,95788.03
2022-08-26T23:05:34.354Z,95785.69
2022-08-26T23:08:01.666Z,95786.44
2022-08-26T23:10:28.798Z,95786.78
2022-08-26T23:12:55.589Z,95785.25
2022-08-26T23:15:22.396Z,95793.06
2022-08-26T23:17:55.877Z,95786.72
2022-08-26T23:20:36.346Z,95790.66
2022-08-26T23:23:03.024Z,95784.75
2022-08-26T23:25:32.276Z,95790.75
2022-08-26T23:28:00.370Z,95797.81
2022-08-26T23:30:29.542Z,95791.53
2022-08-26T23:32:56.146Z,95794.19
2022-08-26T23:35:22.749Z,95788.25
2022-08-26T23:37:52.447Z,95791.53
2022-08-26T23:40:28.646Z,95787.47
2022-08-26T23:42:57.515Z,95792.84
2022-08-26T23:45:25.147Z,95795.47
2022-08-26T23:47:52.889Z,95794.44
2022-08-26T23:50:22.204Z,95792.47
2022-08-26T23:53:08.731Z,95795.63
2022-08-26T23:55:39.237Z,95779.56
2022-08-26T23:58:06.460Z,95787.22
